Time;durP1;ratioP1;P1;durP2;ratioP2;P2;SDS_P1;SDS_P2;PMS_P1;PMS_P2;Temp;Humidity;BMP_temperature;BMP_pressure;BME280_temperature;BME280_humidity;BME280_pressure;Samples;Min_cycle;Max_cycle;Signal;HPM_P1;HPM_P2
2022/01/08 16:50:07;;;;;;;9.93;5.80;;;;;;;;;;6259984;22;20012;-81
2022/01/08 16:52:32;;;;;;;7.10;4.20;;;;;;;;;;6301590;22;20058;-81
2022/01/08 16:54:58;;;;;;;7.28;5.03;;;;;;;;;;6277912;22;20006;-85
2022/01/08 16:57:23;;;;;;;8.52;4.28;;;;;;;;;;6277135;22;20003;-82
2022/01/08 16:59:49;;;;;;;6.38;4.05;;;;;;;;;;6276758;22;20006;-82
2022/01/08 17:02:14;;;;;;;8.82;4.22;;;;;;;;;;6277023;22;20046;-83
2022/01/08 17:04:40;;;;;;;6.05;3.80;;;;;;;;;;6276037;22;20003;-82
2022/01/08 17:07:06;;;;;;;8.40;4.10;;;;;;;;;;6276979;22;20004;-83
2022/01/08 17:09:32;;;;;;;5.40;3.70;;;;;;;;;;6277419;22;20011;-82
2022/01/08 17:11:58;;;;;;;9.85;6.13;;;;;;;;;;6277524;22;20369;-82
2022/01/08 17:14:25;;;;;;;32.47;17.92;;;;;;;;;;6277448;22;20062;-83
2022/01/08 17:16:52;;;;;;;31.27;17.27;;;;;;;;;;6276900;22;20003;-83
2022/01/08 17:19:18;;;;;;;25.98;15.80;;;;;;;;;;6277275;22;20004;-83
2022/01/08 17:21:44;;;;;;;18.02;11.50;;;;;;;;;;6276542;22;20004;-82
2022/01/08 17:24:09;;;;;;;16.17;9.25;;;;;;;;;;6276889;22;20122;-82
2022/01/08 17:26:35;;;;;;;13.25;6.85;;;;;;;;;;6300579;22;20011;-82
2022/01/08 17:29:00;;;;;;;7.93;5.28;;;;;;;;;;6276631;22;20007;-81
2022/01/08 17:31:26;;;;;;;6.15;3.53;;;;;;;;;;6276578;22;20008;-82
2022/01/08 17:33:51;;;;;;;8.27;4.75;;;;;;;;;;6276369;22;20027;-81
2022/01/08 17:36:17;;;;;;;14.70;9.15;;;;;;;;;;6274608;22;20039;-82
2022/01/08 17:38:43;;;;;;;12.68;8.55;;;;;;;;;;6276196;22;20461;-82
2022/01/08 17:41:08;;;;;;;13.43;7.30;;;;;;;;;;6276753;22;20056;-83
2022/01/08 17:43:34;;;;;;;9.80;6.85;;;;;;;;;;6301702;22;20426;-82
2022/01/08 17:45:59;;;;;;;10.32;6.90;;;;;;;;;;6303196;22;20092;-82
2022/01/08 17:48:25;;;;;;;8.68;6.85;;;;;;;;;;6279015;22;19999;-81
2022/01/08 17:50:50;;;;;;;6.53;4.40;;;;;;;;;;6305404;22;20007;-81
2022/01/08 17:53:18;;;;;;;5.45;3.67;;;;;;;;;;6308339;22;20081;-82
2022/01/08 17:55:45;;;;;;;5.95;3.80;;;;;;;;;;6309543;22;20030;-81
2022/01/08 17:58:11;;;;;;;6.00;4.22;;;;;;;;;;6309590;22;20058;-82
2022/01/08 18:00:37;;;;;;;7.15;4.18;;;;;;;;;;6309345;22;20418;-81
2022/01/08 18:03:03;;;;;;;7.65;4.70;;;;;;;;;;6309707;22;20006;-82
2022/01/08 18:05:29;;;;;;;4.53;3.65;;;;;;;;;;6309316;22;20003;-81
2022/01/08 18:07:55;;;;;;;3.97;3.13;;;;;;;;;;6309579;22;20046;-82
2022/01/08 18:10:20;;;;;;;21.23;12.00;;;;;;;;;;6282403;22;20353;-82
2022/01/08 18:12:46;;;;;;;10.40;6.22;;;;;;;;;;6309409;22;20450;-81
2022/01/08 18:15:13;;;;;;;12.50;8.02;;;;;;;;;;6309383;22;20326;-82
2022/01/08 18:17:40;;;;;;;13.57;7.80;;;;;;;;;;6309767;22;20003;-83
2022/01/08 18:20:08;;;;;;;9.30;5.35;;;;;;;;;;6309484;22;20011;-83
2022/01/08 18:22:33;;;;;;;10.73;5.80;;;;;;;;;;6281879;22;20010;-83
2022/01/08 18:24:59;;;;;;;9.82;6.32;;;;;;;;;;6309630;22;20003;-81
2022/01/08 18:27:25;;;;;;;10.85;6.40;;;;;;;;;;6282171;22;19999;-82
2022/01/08 18:29:50;;;;;;;9.43;5.53;;;;;;;;;;6309620;22;20056;-81
2022/01/08 18:32:16;;;;;;;4.75;3.65;;;;;;;;;;6309435;22;20010;-82
2022/01/08 18:34:41;;;;;;;11.32;5.35;;;;;;;;;;6309277;22;20091;-82
2022/01/08 18:37:07;;;;;;;7.65;4.13;;;;;;;;;;6308925;22;20011;-83
2022/01/08 18:39:34;;;;;;;6.65;3.38;;;;;;;;;;6309367;22;20005;-83
2022/01/08 18:41:59;;;;;;;3.72;3.05;;;;;;;;;;6281843;22;20078;-83
2022/01/08 18:44:25;;;;;;;11.82;5.68;;;;;;;;;;6281892;22;20031;-83
2022/01/08 18:46:53;;;;;;;10.73;5.60;;;;;;;;;;6309018;22;20010;-83
2022/01/08 18:49:19;;;;;;;10.18;5.70;;;;;;;;;;6309153;22;20033;-82
2022/01/08 18:51:45;;;;;;;8.88;6.13;;;;;;;;;;6310199;22;20035;-83
2022/01/08 18:54:11;;;;;;;10.20;6.80;;;;;;;;;;6309292;22;20003;-83
2022/01/08 18:56:37;;;;;;;16.05;8.65;;;;;;;;;;6308942;22;20082;-82
2022/01/08 18:59:03;;;;;;;12.20;7.40;;;;;;;;;;6309563;22;20004;-82
2022/01/08 19:01:29;;;;;;;13.15;8.25;;;;;;;;;;6309067;22;20029;-82
2022/01/08 19:03:54;;;;;;;21.92;11.57;;;;;;;;;;6309227;22;20010;-82
2022/01/08 19:06:20;;;;;;;14.85;8.93;;;;;;;;;;6308830;22;20008;-83
2022/01/08 19:08:46;;;;;;;16.15;10.32;;;;;;;;;;6308504;22;19999;-83
2022/01/08 19:11:11;;;;;;;12.90;7.85;;;;;;;;;;6309125;22;20005;-83
2022/01/08 19:13:36;;;;;;;13.25;7.97;;;;;;;;;;6308889;22;20006;-84
2022/01/08 19:16:02;;;;;;;13.60;7.97;;;;;;;;;;6308766;22;20010;-83
2022/01/08 19:18:28;;;;;;;15.98;8.38;;;;;;;;;;6308715;22;19995;-83
2022/01/08 19:20:54;;;;;;;12.77;7.97;;;;;;;;;;6309227;22;20003;-83
2022/01/08 19:23:19;;;;;;;13.68;8.40;;;;;;;;;;6308707;22;20003;-81
2022/01/08 19:25:45;;;;;;;10.07;6.82;;;;;;;;;;6281458;22;20011;-83
2022/01/08 19:28:10;;;;;;;9.27;7.05;;;;;;;;;;6308876;22;19999;-82
2022/01/08 19:30:38;;;;;;;10.88;6.88;;;;;;;;;;6308764;22;20412;-84
2022/01/08 19:33:04;;;;;;;9.45;6.55;;;;;;;;;;6281548;22;20011;-84
2022/01/08 19:35:30;;;;;;;11.70;7.50;;;;;;;;;;6309215;22;20014;-83
2022/01/08 19:37:56;;;;;;;16.70;8.07;;;;;;;;;;6281332;22;20007;-83
2022/01/08 19:40:22;;;;;;;18.65;8.77;;;;;;;;;;6308661;22;20037;-85
2022/01/08 19:42:47;;;;;;;11.05;6.28;;;;;;;;;;6308948;22;20393;-84
2022/01/08 19:45:13;;;;;;;14.50;8.50;;;;;;;;;;6281438;22;20003;-85
2022/01/08 19:47:39;;;;;;;9.65;6.38;;;;;;;;;;6308905;22;20014;-85
2022/01/08 19:50:06;;;;;;;12.00;5.78;;;;;;;;;;6308316;22;20422;-84
2022/01/08 19:52:31;;;;;;;10.82;5.50;;;;;;;;;;6308400;22;20026;-84
2022/01/08 19:54:59;;;;;;;13.00;6.15;;;;;;;;;;6280961;22;20411;-84
2022/01/08 19:57:25;;;;;;;9.73;5.22;;;;;;;;;;6308383;22;20003;-84
2022/01/08 19:59:51;;;;;;;14.77;9.85;;;;;;;;;;6308550;22;20007;-83
2022/01/08 20:02:18;;;;;;;11.88;8.60;;;;;;;;;;6281113;22;20012;-84
2022/01/08 20:04:44;;;;;;;12.00;7.55;;;;;;;;;;6308380;22;20471;-83
2022/01/08 20:07:10;;;;;;;11.15;6.00;;;;;;;;;;6308099;22;20030;-84
2022/01/08 20:09:38;;;;;;;14.23;7.00;;;;;;;;;;6281141;22;20437;-83
2022/01/08 20:12:06;;;;;;;13.35;7.43;;;;;;;;;;6308184;22;20057;-83
2022/01/08 20:14:32;;;;;;;12.48;7.18;;;;;;;;;;6307890;22;20003;-82
2022/01/08 20:16:58;;;;;;;10.60;6.43;;;;;;;;;;6307527;22;20031;-83
2022/01/08 20:19:25;;;;;;;10.02;6.68;;;;;;;;;;6307860;22;20003;-83
2022/01/08 20:21:51;;;;;;;11.13;6.45;;;;;;;;;;6308115;22;20003;-83
2022/01/08 20:24:16;;;;;;;11.00;8.13;;;;;;;;;;6307566;22;20295;-83
2022/01/08 20:26:42;;;;;;;17.77;12.85;;;;;;;;;;6308052;22;20307;-83
2022/01/08 20:29:08;;;;;;;14.45;9.30;;;;;;;;;;6280500;22;20330;-83
2022/01/08 20:31:34;;;;;;;16.80;9.80;;;;;;;;;;6308152;22;20007;-83
2022/01/08 20:33:59;;;;;;;14.85;10.23;;;;;;;;;;6308431;22;20003;-85
2022/01/08 20:36:25;;;;;;;18.55;10.73;;;;;;;;;;6308127;22;20042;-85
2022/01/08 20:38:50;;;;;;;16.80;10.68;;;;;;;;;;6308571;22;19999;-84
2022/01/08 20:41:17;;;;;;;15.73;10.15;;;;;;;;;;6308366;22;20354;-84
2022/01/08 20:43:43;;;;;;;12.98;9.50;;;;;;;;;;6308264;22;20333;-84
2022/01/08 20:46:09;;;;;;;16.45;10.13;;;;;;;;;;6308065;22;20009;-84
2022/01/08 20:48:34;;;;;;;11.13;8.63;;;;;;;;;;6308269;22;20060;-84
2022/01/08 20:51:00;;;;;;;13.23;8.40;;;;;;;;;;6308057;22;20315;-84
2022/01/08 20:53:26;;;;;;;14.15;8.82;;;;;;;;;;6307594;22;20006;-82
2022/01/08 20:55:51;;;;;;;12.07;8.38;;;;;;;;;;6307684;22;20003;-82
2022/01/08 20:58:17;;;;;;;14.65;8.98;;;;;;;;;;6280667;22;20007;-82
2022/01/08 21:00:43;;;;;;;14.35;9.52;;;;;;;;;;6308017;22;20323;-82
2022/01/08 21:03:08;;;;;;;12.88;9.27;;;;;;;;;;6308012;22;20000;-82
2022/01/08 21:05:34;;;;;;;12.25;8.95;;;;;;;;;;6308325;22;20078;-82
2022/01/08 21:07:59;;;;;;;10.05;6.30;;;;;;;;;;6308175;22;20086;-82
2022/01/08 21:10:26;;;;;;;17.40;7.85;;;;;;;;;;6307895;22;20049;-82
2022/01/08 21:12:52;;;;;;;14.25;8.13;;;;;;;;;;6308016;22;20326;-82
2022/01/08 21:15:18;;;;;;;15.40;9.65;;;;;;;;;;6307698;22;19999;-82
2022/01/08 21:17:43;;;;;;;15.77;9.02;;;;;;;;;;6308417;22;20426;-82
2022/01/08 21:20:12;;;;;;;12.25;9.23;;;;;;;;;;6307862;22;19999;-82
2022/01/08 21:22:38;;;;;;;11.63;8.27;;;;;;;;;;6280582;22;20014;-82
2022/01/08 21:25:05;;;;;;;11.23;7.80;;;;;;;;;;6307912;22;20084;-82
2022/01/08 21:27:31;;;;;;;13.20;8.75;;;;;;;;;;6307930;22;20003;-82
2022/01/08 21:29:58;;;;;;;12.15;8.45;;;;;;;;;;6307628;22;20426;-83
2022/01/08 21:32:24;;;;;;;14.93;8.52;;;;;;;;;;6307879;22;19999;-83
2022/01/08 21:34:50;;;;;;;13.48;9.05;;;;;;;;;;6308196;22;20472;-82
2022/01/08 21:37:16;;;;;;;14.93;9.05;;;;;;;;;;6307609;22;20007;-83
2022/01/08 21:39:42;;;;;;;20.90;10.65;;;;;;;;;;6307823;22;20003;-82
2022/01/08 21:42:08;;;;;;;12.88;7.05;;;;;;;;;;6307942;22;20429;-82
2022/01/08 21:44:34;;;;;;;20.80;9.80;;;;;;;;;;6307767;22;20000;-82
2022/01/08 21:47:01;;;;;;;15.55;8.68;;;;;;;;;;6308062;22;20003;-83
2022/01/08 21:49:27;;;;;;;13.93;9.15;;;;;;;;;;6307377;22;20011;-83
2022/01/08 21:51:53;;;;;;;14.68;10.70;;;;;;;;;;6307896;22;20003;-83
2022/01/08 21:54:19;;;;;;;13.70;9.38;;;;;;;;;;6307668;22;20075;-82
2022/01/08 21:56:44;;;;;;;12.63;8.98;;;;;;;;;;6307423;22;20003;-83
2022/01/08 21:59:11;;;;;;;13.70;9.05;;;;;;;;;;6307680;22;20066;-83
2022/01/08 22:01:38;;;;;;;15.30;9.45;;;;;;;;;;6307727;22;19999;-82
2022/01/08 22:04:05;;;;;;;12.15;7.55;;;;;;;;;;6307779;22;20004;-82
2022/01/08 22:06:30;;;;;;;14.15;8.80;;;;;;;;;;6307447;22;20046;-83
2022/01/08 22:08:56;;;;;;;13.35;7.85;;;;;;;;;;6307829;22;20416;-83
2022/01/08 22:11:21;;;;;;;9.75;6.53;;;;;;;;;;6307703;22;20070;-84
2022/01/08 22:13:47;;;;;;;12.52;8.07;;;;;;;;;;6307526;22;20345;-84
2022/01/08 22:16:12;;;;;;;13.07;7.03;;;;;;;;;;6307759;22;20004;-83
2022/01/08 22:18:38;;;;;;;11.38;6.90;;;;;;;;;;6307775;22;20002;-83
2022/01/08 22:21:03;;;;;;;10.77;6.60;;;;;;;;;;6307719;22;20000;-83
2022/01/08 22:23:29;;;;;;;16.35;10.35;;;;;;;;;;6307554;22;20432;-83
2022/01/08 22:25:54;;;;;;;26.73;15.88;;;;;;;;;;6307617;22;20078;-83
2022/01/08 22:28:19;;;;;;;29.17;15.15;;;;;;;;;;6307555;22;20009;-83
2022/01/08 22:30:47;;;;;;;8.90;6.40;;;;;;;;;;6309018;22;19999;-83
2022/01/08 22:33:13;;;;;;;10.57;6.55;;;;;;;;;;6281937;22;20465;-83
2022/01/08 22:35:38;;;;;;;10.23;6.45;;;;;;;;;;6309560;22;20054;-83
2022/01/08 22:38:04;;;;;;;11.27;6.47;;;;;;;;;;6309652;22;20086;-84
2022/01/08 22:40:29;;;;;;;8.90;5.60;;;;;;;;;;6282337;22;20003;-84
2022/01/08 22:42:55;;;;;;;10.35;7.22;;;;;;;;;;6309261;22;20426;-84
2022/01/08 22:45:20;;;;;;;10.35;6.47;;;;;;;;;;6281884;22;20015;-83
2022/01/08 22:47:46;;;;;;;9.85;6.50;;;;;;;;;;6309447;22;20008;-83
2022/01/08 22:50:11;;;;;;;7.15;4.90;;;;;;;;;;6309206;22;20018;-83
2022/01/08 22:52:37;;;;;;;4.00;3.13;;;;;;;;;;6309258;22;20004;-83
2022/01/08 22:55:02;;;;;;;9.38;5.80;;;;;;;;;;6309209;22;20026;-83
2022/01/08 22:57:28;;;;;;;10.32;6.07;;;;;;;;;;6308956;22;19999;-83
2022/01/08 22:59:53;;;;;;;9.60;5.90;;;;;;;;;;6309124;22;20003;-83
2022/01/08 23:02:19;;;;;;;8.05;5.00;;;;;;;;;;6281750;22;20331;-83
2022/01/08 23:04:47;;;;;;;9.10;6.03;;;;;;;;;;6282277;22;20007;-84
2022/01/08 23:07:20;;;;;;;7.38;5.70;;;;;;;;;;6309138;22;20022;-83
2022/01/08 23:09:46;;;;;;;9.50;6.05;;;;;;;;;;6309075;22;20010;-84
2022/01/08 23:12:12;;;;;;;10.23;6.50;;;;;;;;;;6309049;22;19995;-83
2022/01/08 23:14:37;;;;;;;11.65;6.95;;;;;;;;;;6309101;22;20004;-83
2022/01/08 23:17:03;;;;;;;13.25;9.05;;;;;;;;;;6308990;22;20064;-82
2022/01/08 23:19:28;;;;;;;15.95;10.02;;;;;;;;;;6308572;22;20000;-82
2022/01/08 23:21:56;;;;;;;10.30;6.63;;;;;;;;;;6309055;22;20007;-83
2022/01/08 23:24:21;;;;;;;9.20;6.97;;;;;;;;;;6309132;22;20449;-83
2022/01/08 23:26:47;;;;;;;15.60;9.40;;;;;;;;;;6308891;22;20003;-82
2022/01/08 23:29:13;;;;;;;23.70;15.02;;;;;;;;;;6309402;22;20007;-83
